sensor_id;sensor_type;location;lat;lon;timestamp;pressure;altitude;pressure_sealevel;temperature;humidity
54816;BME280;40715;55.752;37.884;2023-04-09T00:00:19;100059.13;;;31.44;25.00
54816;BME280;40715;55.752;37.884;2023-04-09T00:02:46;100060.19;;;31.43;24.74
54816;BME280;40715;55.752;37.884;2023-04-09T00:05:14;100057.63;;;31.41;25.17
54816;BME280;40715;55.752;37.884;2023-04-09T00:07:41;100056.75;;;31.41;24.84
54816;BME280;40715;55.752;37.884;2023-04-09T00:10:10;100055.75;;;31.42;25.17
54816;BME280;40715;55.752;37.884;2023-04-09T00:12:38;100052.19;;;31.41;24.83
54816;BME280;40715;55.752;37.884;2023-04-09T00:15:06;100048.06;;;31.37;25.28
54816;BME280;40715;55.752;37.884;2023-04-09T00:17:36;100056.59;;;31.42;25.16
54816;BME280;40715;55.752;37.884;2023-04-09T00:20:04;100059.47;;;31.41;25.14
54816;BME280;40715;55.752;37.884;2023-04-09T00:22:31;100053.03;;;31.42;25.23
54816;BME280;40715;55.752;37.884;2023-04-09T00:24:59;100057.63;;;31.41;24.80
54816;BME280;40715;55.752;37.884;2023-04-09T00:27:26;100054.19;;;31.39;24.88
54816;BME280;40715;55.752;37.884;2023-04-09T00:29:54;100064.06;;;31.40;25.14
54816;BME280;40715;55.752;37.884;2023-04-09T00:32:24;100062.19;;;31.41;24.91
54816;BME280;40715;55.752;37.884;2023-04-09T00:34:51;100064.06;;;31.40;24.97
54816;BME280;40715;55.752;37.884;2023-04-09T00:37:18;100063.34;;;31.38;25.22
54816;BME280;40715;55.752;37.884;2023-04-09T00:39:46;100062.34;;;31.39;24.83
54816;BME280;40715;55.752;37.884;2023-04-09T00:42:13;100054.03;;;31.41;25.18
54816;BME280;40715;55.752;37.884;2023-04-09T00:44:40;100058.63;;;31.40;25.15
54816;BME280;40715;55.752;37.884;2023-04-09T00:47:07;100051.47;;;31.39;25.21
54816;BME280;40715;55.752;37.884;2023-04-09T00:49:35;100052.34;;;31.40;25.08
54816;BME280;40715;55.752;37.884;2023-04-09T00:52:02;100057.63;;;31.41;24.82
54816;BME280;40715;55.752;37.884;2023-04-09T00:54:29;100046.50;;;31.35;25.20
54816;BME280;40715;55.752;37.884;2023-04-09T00:56:58;100055.06;;;31.40;24.89
54816;BME280;40715;55.752;37.884;2023-04-09T00:59:25;100052.34;;;31.40;24.90
54816;BME280;40715;55.752;37.884;2023-04-09T01:01:52;100054.19;;;31.39;24.90
54816;BME280;40715;55.752;37.884;2023-04-09T01:04:20;100047.34;;;31.35;24.92
54816;BME280;40715;55.752;37.884;2023-04-09T01:06:51;100048.06;;;31.37;25.32
54816;BME280;40715;55.752;37.884;2023-04-09T01:09:27;100048.41;;;31.42;25.35
54816;BME280;40715;55.752;37.884;2023-04-09T01:12:17;100045.25;;;31.47;25.17
54816;BME280;40715;55.752;37.884;2023-04-09T01:17:44;100057.13;;;31.46;25.33
54816;BME280;40715;55.752;37.884;2023-04-09T01:23:18;100057.91;;;31.38;24.95
54816;BME280;40715;55.752;37.884;2023-04-09T01:26:15;100059.38;;;31.50;24.91
54816;BME280;40715;55.752;37.884;2023-04-09T01:28:48;100058.22;;;31.35;25.29
54816;BME280;40715;55.752;37.884;2023-04-09T01:31:19;100060.28;;;31.33;25.29
54816;BME280;40715;55.752;37.884;2023-04-09T01:33:47;100053.94;;;31.32;24.87
54816;BME280;40715;55.752;37.884;2023-04-09T01:36:15;100054.13;;;31.31;25.37
54816;BME280;40715;55.752;37.884;2023-04-09T01:38:43;100060.44;;;31.31;25.05
54816;BME280;40715;55.752;37.884;2023-04-09T01:41:15;100057.56;;;31.33;25.04
54816;BME280;40715;55.752;37.884;2023-04-09T01:43:43;100055.66;;;31.33;25.06
54816;BME280;40715;55.752;37.884;2023-04-09T01:46:12;100054.81;;;31.33;25.00
54816;BME280;40715;55.752;37.884;2023-04-09T01:48:41;100060.28;;;31.33;24.91
54816;BME280;40715;55.752;37.884;2023-04-09T01:51:08;100062.69;;;31.36;25.32
54816;BME280;40715;55.752;37.884;2023-04-09T01:53:36;100060.13;;;31.35;25.14
54816;BME280;40715;55.752;37.884;2023-04-09T01:56:03;100061.13;;;31.33;25.10
54816;BME280;40715;55.752;37.884;2023-04-09T01:58:30;100059.28;;;31.34;25.03
54816;BME280;40715;55.752;37.884;2023-04-09T02:01:08;100057.38;;;31.35;25.35
54816;BME280;40715;55.752;37.884;2023-04-09T02:03:47;100068.66;;;31.40;25.40
54816;BME280;40715;55.752;37.884;2023-04-09T02:06:30;100060.63;;;31.38;25.39
54816;BME280;40715;55.752;37.884;2023-04-09T02:09:00;100055.66;;;31.33;25.32
54816;BME280;40715;55.752;37.884;2023-04-09T02:11:28;100056.69;;;31.32;25.04
54816;BME280;40715;55.752;37.884;2023-04-09T02:13:57;100065.56;;;31.35;25.12
54816;BME280;40715;55.752;37.884;2023-04-09T02:16:45;100058.22;;;31.35;25.31
54816;BME280;40715;55.752;37.884;2023-04-09T02:19:12;100059.28;;;31.34;24.93
54816;BME280;40715;55.752;37.884;2023-04-09T02:21:40;100057.72;;;31.31;25.13
54816;BME280;40715;55.752;37.884;2023-04-09T02:24:07;100053.94;;;31.32;25.33
54816;BME280;40715;55.752;37.884;2023-04-09T02:26:34;100059.41;;;31.32;25.36
54816;BME280;40715;55.752;37.884;2023-04-09T02:29:02;100058.41;;;31.33;25.04
54816;BME280;40715;55.752;37.884;2023-04-09T02:31:29;100056.00;;;31.30;25.25
54816;BME280;40715;55.752;37.884;2023-04-09T02:33:56;100045.75;;;31.24;25.32
54816;BME280;40715;55.752;37.884;2023-04-09T02:36:23;100054.81;;;31.33;24.93
54816;BME280;40715;55.752;37.884;2023-04-09T02:38:52;100055.00;;;31.31;25.17
54816;BME280;40715;55.752;37.884;2023-04-09T02:41:19;100055.84;;;31.32;24.95
54816;BME280;40715;55.752;37.884;2023-04-09T02:43:47;100053.09;;;31.32;25.21
54816;BME280;40715;55.752;37.884;2023-04-09T02:46:14;100046.66;;;31.33;25.39
54816;BME280;40715;55.752;37.884;2023-04-09T02:48:41;100053.09;;;31.32;24.88
54816;BME280;40715;55.752;37.884;2023-04-09T02:51:08;100048.50;;;31.32;25.07
54816;BME280;40715;55.752;37.884;2023-04-09T02:53:36;100046.81;;;31.31;25.14
54816;BME280;40715;55.752;37.884;2023-04-09T02:56:05;100055.84;;;31.32;25.18
54816;BME280;40715;55.752;37.884;2023-04-09T02:58:32;100053.94;;;31.32;25.29
54816;BME280;40715;55.752;37.884;2023-04-09T03:00:59;100050.38;;;31.32;25.45
54816;BME280;40715;55.752;37.884;2023-04-09T03:03:26;100056.84;;;31.31;25.36
54816;BME280;40715;55.752;37.884;2023-04-09T03:05:55;100055.66;;;31.33;24.98
54816;BME280;40715;55.752;37.884;2023-04-09T03:08:22;100056.69;;;31.32;25.07
54816;BME280;40715;55.752;37.884;2023-04-09T03:10:49;100047.28;;;31.27;25.34
54816;BME280;40715;55.752;37.884;2023-04-09T03:13:16;100065.88;;;31.31;25.15
54816;BME280;40715;55.752;37.884;2023-04-09T03:15:44;100063.00;;;31.33;25.40
54816;BME280;40715;55.752;37.884;2023-04-09T03:18:11;100057.56;;;31.33;25.20
54816;BME280;40715;55.752;37.884;2023-04-09T03:20:38;100061.28;;;31.32;25.04
54816;BME280;40715;55.752;37.884;2023-04-09T03:23:05;100056.69;;;31.32;25.07
54816;BME280;40715;55.752;37.884;2023-04-09T03:25:32;100066.72;;;31.32;25.25
54816;BME280;40715;55.752;37.884;2023-04-09T03:28:00;100061.28;;;31.32;25.51
54816;BME280;40715;55.752;37.884;2023-04-09T03:30:28;100054.44;;;31.28;25.07
54816;BME280;40715;55.752;37.884;2023-04-09T03:32:56;100064.16;;;31.30;25.19
54816;BME280;40715;55.752;37.884;2023-04-09T03:35:24;100065.00;;;31.31;25.20
54816;BME280;40715;55.752;37.884;2023-04-09T03:37:52;100063.00;;;31.33;25.30
54816;BME280;40715;55.752;37.884;2023-04-09T03:40:19;100052.28;;;31.31;25.43
54816;BME280;40715;55.752;37.884;2023-04-09T03:42:46;100057.72;;;31.31;25.31
54816;BME280;40715;55.752;37.884;2023-04-09T03:45:14;100063.84;;;31.33;25.16
54816;BME280;40715;55.752;37.884;2023-04-09T03:47:41;100060.44;;;31.31;25.34
54816;BME280;40715;55.752;37.884;2023-04-09T03:50:09;100052.88;;;31.25;25.35
54816;BME280;40715;55.752;37.884;2023-04-09T03:52:36;100059.41;;;31.32;25.12
54816;BME280;40715;55.752;37.884;2023-04-09T03:55:03;100067.56;;;31.32;25.14
54816;BME280;40715;55.752;37.884;2023-04-09T03:57:31;100067.56;;;31.32;25.40
54816;BME280;40715;55.752;37.884;2023-04-09T03:59:58;100064.00;;;31.32;25.37
54816;BME280;40715;55.752;37.884;2023-04-09T04:02:25;100065.72;;;31.33;25.56
54816;BME280;40715;55.752;37.884;2023-04-09T04:04:53;100061.28;;;31.32;25.19
54816;BME280;40715;55.752;37.884;2023-04-09T04:07:20;100068.28;;;31.35;25.42
54816;BME280;40715;55.752;37.884;2023-04-09T04:09:47;100059.41;;;31.32;25.27
54816;BME280;40715;55.752;37.884;2023-04-09T04:12:15;100063.16;;;31.31;25.59
54816;BME280;40715;55.752;37.884;2023-04-09T04:14:42;100065.72;;;31.33;25.38
54816;BME280;40715;55.752;37.884;2023-04-09T04:17:09;100064.00;;;31.32;25.25
54816;BME280;40715;55.752;37.884;2023-04-09T04:19:37;100063.84;;;31.33;25.36
54816;BME280;40715;55.752;37.884;2023-04-09T04:22:04;100054.13;;;31.31;25.43
54816;BME280;40715;55.752;37.884;2023-04-09T04:24:32;100056.16;;;31.29;25.20
54816;BME280;40715;55.752;37.884;2023-04-09T04:27:00;100062.13;;;31.32;25.25
54816;BME280;40715;55.752;37.884;2023-04-09T04:29:27;100056.69;;;31.32;25.20
54816;BME280;40715;55.752;37.884;2023-04-09T04:31:54;100047.16;;;31.28;25.48
54816;BME280;40715;55.752;37.884;2023-04-09T04:34:21;100055.84;;;31.32;25.65
54816;BME280;40715;55.752;37.884;2023-04-09T04:36:49;100047.16;;;31.28;25.81
54816;BME280;40715;55.752;37.884;2023-04-09T04:39:16;100056.53;;;31.34;25.40
54816;BME280;40715;55.752;37.884;2023-04-09T04:44:29;100052.94;;;31.33;25.63
54816;BME280;40715;55.752;37.884;2023-04-09T04:46:57;100054.13;;;31.31;25.60
54816;BME280;40715;55.752;37.884;2023-04-09T04:49:24;100055.84;;;31.32;25.58
54816;BME280;40715;55.752;37.884;2023-04-09T04:51:51;100056.69;;;31.32;25.66
54816;BME280;40715;55.752;37.884;2023-04-09T04:54:19;100049.53;;;31.31;25.84
54816;BME280;40715;55.752;37.884;2023-04-09T04:56:46;100057.56;;;31.33;25.72
54816;BME280;40715;55.752;37.884;2023-04-09T04:59:13;100050.38;;;31.32;25.72
54816;BME280;40715;55.752;37.884;2023-04-09T05:01:41;100053.94;;;31.32;25.64
54816;BME280;40715;55.752;37.884;2023-04-09T05:04:08;100049.38;;;31.33;25.96
54816;BME280;40715;55.752;37.884;2023-04-09T05:06:36;100057.56;;;31.33;25.88
54816;BME280;40715;55.752;37.884;2023-04-09T05:09:03;100044.09;;;31.31;25.78
54816;BME280;40715;55.752;37.884;2023-04-09T05:11:30;100054.81;;;31.33;25.86
54816;BME280;40715;55.752;37.884;2023-04-09T05:13:57;100055.66;;;31.33;25.69
54816;BME280;40715;55.752;37.884;2023-04-09T05:16:25;100059.28;;;31.34;25.90
54816;BME280;40715;55.752;37.884;2023-04-09T05:18:53;100054.66;;;31.35;26.08
54816;BME280;40715;55.752;37.884;2023-04-09T05:21:20;100052.78;;;31.35;25.81
54816;BME280;40715;55.752;37.884;2023-04-09T05:23:47;100059.28;;;31.34;26.05
54816;BME280;40715;55.752;37.884;2023-04-09T05:26:14;100063.69;;;31.35;26.21
54816;BME280;40715;55.752;37.884;2023-04-09T05:28:42;100064.56;;;31.36;25.79
54816;BME280;40715;55.752;37.884;2023-04-09T05:31:09;100066.25;;;31.37;26.21
54816;BME280;40715;55.752;37.884;2023-04-09T05:33:39;100068.78;;;31.38;26.12
54816;BME280;40715;55.752;37.884;2023-04-09T05:36:06;100063.34;;;31.38;25.73
54816;BME280;40715;55.752;37.884;2023-04-09T05:38:34;100071.41;;;31.40;26.05
54816;BME280;40715;55.752;37.884;2023-04-09T05:41:01;100072.41;;;31.39;25.82
54816;BME280;40715;55.752;37.884;2023-04-09T05:43:28;100072.25;;;31.40;26.16
54816;BME280;40715;55.752;37.884;2023-04-09T05:45:56;100077.53;;;31.42;25.81
54816;BME280;40715;55.752;37.884;2023-04-09T05:48:23;100072.06;;;31.42;25.83
54816;BME280;40715;55.752;37.884;2023-04-09T05:50:51;100069.50;;;31.40;26.16
54816;BME280;40715;55.752;37.884;2023-04-09T05:53:21;100069.34;;;31.42;26.34
54816;BME280;40715;55.752;37.884;2023-04-09T05:55:48;100069.34;;;31.42;26.07
54816;BME280;40715;55.752;37.884;2023-04-09T05:58:16;100070.19;;;31.42;26.42
54816;BME280;40715;55.752;37.884;2023-04-09T06:00:44;100079.75;;;31.46;26.36
54816;BME280;40715;55.752;37.884;2023-04-09T06:03:11;100069.41;;;31.50;26.33
54816;BME280;40715;55.752;37.884;2023-04-09T06:05:39;100082.72;;;31.53;25.98
54816;BME280;40715;55.752;37.884;2023-04-09T06:08:06;100086.13;;;31.55;26.20
54816;BME280;40715;55.752;37.884;2023-04-09T06:10:34;100084.81;;;31.59;25.94
54816;BME280;40715;55.752;37.884;2023-04-09T06:13:01;100079.38;;;31.59;25.92
54816;BME280;40715;55.752;37.884;2023-04-09T06:15:28;100084.81;;;31.59;26.19
54816;BME280;40715;55.752;37.884;2023-04-09T06:17:56;100086.53;;;31.60;26.25
54816;BME280;40715;55.752;37.884;2023-04-09T06:20:25;100086.69;;;31.59;25.95
54816;BME280;40715;55.752;37.884;2023-04-09T06:22:52;100085.09;;;31.56;25.92
54816;BME280;40715;55.752;37.884;2023-04-09T06:25:19;100086.84;;;31.57;25.77
54816;BME280;40715;55.752;37.884;2023-04-09T06:27:47;100086.69;;;31.59;25.89
54816;BME280;40715;55.752;37.884;2023-04-09T06:30:14;100087.69;;;31.58;25.88
54816;BME280;40715;55.752;37.884;2023-04-09T06:32:41;100092.31;;;31.57;26.15
54816;BME280;40715;55.752;37.884;2023-04-09T06:35:20;100090.09;;;31.61;26.13
54816;BME280;40715;55.752;37.884;2023-04-09T06:37:47;100089.41;;;31.59;26.27
54816;BME280;40715;55.752;37.884;2023-04-09T06:40:15;100097.44;;;31.60;26.08
54816;BME280;40715;55.752;37.884;2023-04-09T06:42:42;100089.25;;;31.60;25.92
54816;BME280;40715;55.752;37.884;2023-04-09T06:45:09;100092.16;;;31.59;25.90
54816;BME280;40715;55.752;37.884;2023-04-09T06:47:38;100096.41;;;31.61;26.06
54816;BME280;40715;55.752;37.884;2023-04-09T06:50:05;100094.69;;;31.60;26.18
54816;BME280;40715;55.752;37.884;2023-04-09T06:52:33;100095.38;;;31.62;26.22
54816;BME280;40715;55.752;37.884;2023-04-09T06:55:02;100095.38;;;31.62;26.11
54816;BME280;40715;55.752;37.884;2023-04-09T06:57:29;100096.09;;;31.64;26.12
54816;BME280;40715;55.752;37.884;2023-04-09T06:59:56;100094.22;;;31.65;26.10
54816;BME280;40715;55.752;37.884;2023-04-09T07:02:23;100091.50;;;31.65;26.13
54816;BME280;40715;55.752;37.884;2023-04-09T07:04:51;100095.25;;;31.64;26.06
54816;BME280;40715;55.752;37.884;2023-04-09T07:07:18;100084.13;;;31.57;26.22
54816;BME280;40715;55.752;37.884;2023-04-09T07:09:47;100097.81;;;31.65;26.27
54816;BME280;40715;55.752;37.884;2023-04-09T07:12:17;100106.84;;;31.66;26.05
54816;BME280;40715;55.752;37.884;2023-04-09T07:14:51;100104.78;;;31.68;26.07
54816;BME280;40715;55.752;37.884;2023-04-09T07:17:19;100106.84;;;31.66;26.04
54816;BME280;40715;55.752;37.884;2023-04-09T07:19:46;100097.97;;;31.64;26.27
54816;BME280;40715;55.752;37.884;2023-04-09T07:22:13;100112.13;;;31.67;26.53
54816;BME280;40715;55.752;37.884;2023-04-09T07:24:41;100101.22;;;31.67;26.23
54816;BME280;40715;55.752;37.884;2023-04-09T07:27:08;100112.13;;;31.67;26.44
54816;BME280;40715;55.752;37.884;2023-04-09T07:29:36;100111.94;;;31.69;26.16
54816;BME280;40715;55.752;37.884;2023-04-09T07:32:03;100109.06;;;31.71;26.11
54816;BME280;40715;55.752;37.884;2023-04-09T07:34:31;100101.78;;;31.71;26.22
54816;BME280;40715;55.752;37.884;2023-04-09T07:36:59;100111.31;;;31.75;26.11
54816;BME280;40715;55.752;37.884;2023-04-09T07:39:26;100113.03;;;31.76;26.13
54816;BME280;40715;55.752;37.884;2023-04-09T07:41:53;100114.91;;;31.76;26.15
54816;BME280;40715;55.752;37.884;2023-04-09T07:44:20;100118.63;;;31.75;26.20
54816;BME280;40715;55.752;37.884;2023-04-09T07:46:48;100105.84;;;31.75;26.34
54816;BME280;40715;55.752;37.884;2023-04-09T07:49:15;100095.63;;;31.69;25.91
54816;BME280;40715;55.752;37.884;2023-04-09T07:51:43;100114.91;;;31.76;26.10
54816;BME280;40715;55.752;37.884;2023-04-09T07:54:10;100113.91;;;31.77;26.04
54816;BME280;40715;55.752;37.884;2023-04-09T07:56:38;100107.72;;;31.75;26.34
54816;BME280;40715;55.752;37.884;2023-04-09T07:59:06;100112.84;;;31.78;26.13
54816;BME280;40715;55.752;37.884;2023-04-09T08:01:33;100109.28;;;31.77;26.39
54816;BME280;40715;55.752;37.884;2023-04-09T08:04:00;100112.84;;;31.78;26.45
54816;BME280;40715;55.752;37.884;2023-04-09T08:06:28;100117.47;;;31.77;26.10
54816;BME280;40715;55.752;37.884;2023-04-09T08:08:55;100109.28;;;31.77;26.55
54816;BME280;40715;55.752;37.884;2023-04-09T08:11:22;100113.03;;;31.76;26.47
54816;BME280;40715;55.752;37.884;2023-04-09T08:13:52;100103.13;;;31.75;26.37
54816;BME280;40715;55.752;37.884;2023-04-09T08:16:19;100106.72;;;31.76;26.10
54816;BME280;40715;55.752;37.884;2023-04-09T08:18:47;100099.72;;;31.73;26.15
54816;BME280;40715;55.752;37.884;2023-04-09T08:21:14;100104.00;;;31.76;26.15
54816;BME280;40715;55.752;37.884;2023-04-09T08:23:42;100098.56;;;31.76;26.59
54816;BME280;40715;55.752;37.884;2023-04-09T08:26:09;100110.13;;;31.78;26.35
54816;BME280;40715;55.752;37.884;2023-04-09T08:28:36;100096.50;;;31.78;26.68
54816;BME280;40715;55.752;37.884;2023-04-09T08:31:03;100098.41;;;31.77;26.55
54816;BME280;40715;55.752;37.884;2023-04-09T08:33:31;100097.38;;;31.78;26.53
54816;BME280;40715;55.752;37.884;2023-04-09T08:35:58;100094.50;;;31.80;26.21
54816;BME280;40715;55.752;37.884;2023-04-09T08:38:27;100093.47;;;31.81;26.15
54816;BME280;40715;55.752;37.884;2023-04-09T08:40:54;100090.06;;;31.79;26.21
54816;BME280;40715;55.752;37.884;2023-04-09T08:43:23;100090.91;;;31.79;26.20
54816;BME280;40715;55.752;37.884;2023-04-09T08:46:02;100088.88;;;31.81;26.67
54816;BME280;40715;55.752;37.884;2023-04-09T08:48:30;100088.19;;;31.79;26.60
54816;BME280;40715;55.752;37.884;2023-04-09T08:50:57;100087.00;;;31.82;26.24
54816;BME280;40715;55.752;37.884;2023-04-09T08:53:25;100083.44;;;31.81;26.51
54816;BME280;40715;55.752;37.884;2023-04-09T08:55:53;100062.44;;;31.74;26.73
54816;BME280;40715;55.752;37.884;2023-04-09T08:58:20;100081.56;;;31.82;26.41
54816;BME280;40715;55.752;37.884;2023-04-09T09:00:47;100092.28;;;31.83;26.45
54816;BME280;40715;55.752;37.884;2023-04-09T09:03:14;100077.66;;;31.84;26.34
54816;BME280;40715;55.752;37.884;2023-04-09T09:05:43;100079.53;;;31.84;26.74
54816;BME280;40715;55.752;37.884;2023-04-09T09:08:13;100074.78;;;31.86;26.60
54816;BME280;40715;55.752;37.884;2023-04-09T09:10:42;100074.78;;;31.86;26.37
54816;BME280;40715;55.752;37.884;2023-04-09T09:13:24;100085.41;;;31.97;26.43
54816;BME280;40715;55.752;37.884;2023-04-09T09:16:11;100075.88;;;32.01;26.39
54816;BME280;40715;55.752;37.884;2023-04-09T09:18:41;100078.56;;;31.93;26.49
54816;BME280;40715;55.752;37.884;2023-04-09T09:21:16;100074.28;;;31.91;26.61
54816;BME280;40715;55.752;37.884;2023-04-09T09:23:44;100069.00;;;31.89;26.57
54816;BME280;40715;55.752;37.884;2023-04-09T09:26:13;100069.88;;;31.90;26.55
54816;BME280;40715;55.752;37.884;2023-04-09T09:28:42;100068.66;;;31.92;26.55
54816;BME280;40715;55.752;37.884;2023-04-09T09:31:10;100058.81;;;31.91;26.99
54816;BME280;40715;55.752;37.884;2023-04-09T09:33:38;100059.66;;;31.92;26.83
54816;BME280;40715;55.752;37.884;2023-04-09T09:36:06;100054.19;;;31.92;26.62
54816;BME280;40715;55.752;37.884;2023-04-09T09:38:53;100058.19;;;32.06;26.47
54816;BME280;40715;55.752;37.884;2023-04-09T09:41:21;100044.63;;;31.88;26.91
54816;BME280;40715;55.752;37.884;2023-04-09T09:43:48;100055.38;;;31.89;26.68
54816;BME280;40715;55.752;37.884;2023-04-09T09:46:16;100053.81;;;31.87;26.64
54816;BME280;40715;55.752;37.884;2023-04-09T09:48:43;100058.81;;;31.91;26.32
54816;BME280;40715;55.752;37.884;2023-04-09T09:51:15;100055.22;;;31.91;26.74
54816;BME280;40715;55.752;37.884;2023-04-09T09:53:44;100053.66;;;31.88;26.39
54816;BME280;40715;55.752;37.884;2023-04-09T09:56:18;100053.53;;;31.90;26.75
54816;BME280;40715;55.752;37.884;2023-04-09T09:59:06;100058.19;;;32.06;26.73
54816;BME280;40715;55.752;37.884;2023-04-09T10:01:36;100054.03;;;31.93;26.75
54816;BME280;40715;55.752;37.884;2023-04-09T10:04:05;100051.81;;;31.89;26.81
54816;BME280;40715;55.752;37.884;2023-04-09T10:06:43;100050.81;;;31.90;26.45
54816;BME280;40715;55.752;37.884;2023-04-09T10:09:11;100046.34;;;31.89;26.75
54816;BME280;40715;55.752;37.884;2023-04-09T10:11:39;100041.91;;;31.88;26.82
54816;BME280;40715;55.752;37.884;2023-04-09T10:14:11;100032.91;;;31.87;26.45
54816;BME280;40715;55.752;37.884;2023-04-09T10:16:41;100040.19;;;31.87;26.23
54816;BME280;40715;55.752;37.884;2023-04-09T10:19:08;100039.19;;;31.88;26.59
54816;BME280;40715;55.752;37.884;2023-04-09T10:21:50;100044.84;;;31.94;26.33
54816;BME280;40715;55.752;37.884;2023-04-09T10:24:20;100039.19;;;31.88;26.42
54816;BME280;40715;55.752;37.884;2023-04-09T10:26:52;100031.03;;;31.88;26.70
54816;BME280;40715;55.752;37.884;2023-04-09T10:29:27;100044.31;;;31.91;26.80
54816;BME280;40715;55.752;37.884;2023-04-09T10:32:05;100037.34;;;31.96;26.31
54816;BME280;40715;55.752;37.884;2023-04-09T10:34:40;100032.41;;;31.92;26.49
54816;BME280;40715;55.752;37.884;2023-04-09T10:37:13;100035.13;;;31.92;26.24
54816;BME280;40715;55.752;37.884;2023-04-09T10:39:44;100033.56;;;31.89;26.41
54816;BME280;40715;55.752;37.884;2023-04-09T10:42:37;100037.41;;;32.05;26.09
54816;BME280;40715;55.752;37.884;2023-04-09T10:45:14;100034.97;;;31.93;26.38
54816;BME280;40715;55.752;37.884;2023-04-09T10:47:42;100040.91;;;31.89;26.36
54816;BME280;40715;55.752;37.884;2023-04-09T10:50:15;100039.19;;;31.88;26.21
54816;BME280;40715;55.752;37.884;2023-04-09T10:52:43;100037.47;;;31.87;26.29
54816;BME280;40715;55.752;37.884;2023-04-09T10:55:36;100034.31;;;31.99;26.28
54816;BME280;40715;55.752;37.884;2023-04-09T10:58:08;100032.91;;;31.87;26.40
54816;BME280;40715;55.752;37.884;2023-04-09T11:00:44;100019.78;;;31.82;26.46
54816;BME280;40715;55.752;37.884;2023-04-09T11:03:20;100029.13;;;31.88;26.06
54816;BME280;40715;55.752;37.884;2023-04-09T11:05:51;100033.75;;;31.88;26.01
54816;BME280;40715;55.752;37.884;2023-04-09T11:08:19;100027.78;;;31.84;26.04
54816;BME280;40715;55.752;37.884;2023-04-09T11:10:48;100018.00;;;31.73;26.06
54816;BME280;40715;55.752;37.884;2023-04-09T11:13:18;100026.22;;;31.81;26.10
54816;BME280;40715;55.752;37.884;2023-04-09T11:15:47;100029.63;;;31.83;26.28
54816;BME280;40715;55.752;37.884;2023-04-09T11:18:23;100032.72;;;31.89;26.55
54816;BME280;40715;55.752;37.884;2023-04-09T11:20:56;100031.03;;;31.88;26.12
54816;BME280;40715;55.752;37.884;2023-04-09T11:23:25;100019.91;;;31.81;26.25
54816;BME280;40715;55.752;37.884;2023-04-09T11:25:53;100027.06;;;31.82;26.12
54816;BME280;40715;55.752;37.884;2023-04-09T11:28:22;100023.50;;;31.81;26.15
54816;BME280;40715;55.752;37.884;2023-04-09T11:30:50;100028.78;;;31.83;26.59
54816;BME280;40715;55.752;37.884;2023-04-09T11:33:18;100021.63;;;31.82;26.13
54816;BME280;40715;55.752;37.884;2023-04-09T11:35:46;100026.91;;;31.83;26.07
54816;BME280;40715;55.752;37.884;2023-04-09T11:38:14;100013.09;;;31.77;26.24
54816;BME280;40715;55.752;37.884;2023-04-09T11:40:42;100026.91;;;31.83;26.04
54816;BME280;40715;55.752;37.884;2023-04-09T11:43:14;100016.88;;;31.84;26.01
54816;BME280;40715;55.752;37.884;2023-04-09T11:45:43;100023.34;;;31.83;26.21
54816;BME280;40715;55.752;37.884;2023-04-09T11:48:10;100007.16;;;31.81;26.52
54816;BME280;40715;55.752;37.884;2023-04-09T11:50:39;100019.06;;;31.80;26.46
54816;BME280;40715;55.752;37.884;2023-04-09T11:53:19;100013.84;;;31.87;26.58
54816;BME280;40715;55.752;37.884;2023-04-09T11:55:50;100013.44;;;31.82;26.57
54816;BME280;40715;55.752;37.884;2023-04-09T11:58:21;100009.19;;;31.79;26.21
54816;BME280;40715;55.752;37.884;2023-04-09T12:01:08;100007.56;;;31.95;26.07
54816;BME280;40715;55.752;37.884;2023-04-09T12:03:35;100010.56;;;31.83;26.24
54816;BME280;40715;55.752;37.884;2023-04-09T12:06:05;100013.44;;;31.82;26.40
54816;BME280;40715;55.752;37.884;2023-04-09T12:08:33;100004.59;;;31.80;26.17
54816;BME280;40715;55.752;37.884;2023-04-09T12:11:13;100010.22;;;31.87;26.06
54816;BME280;40715;55.752;37.884;2023-04-09T12:13:41;100005.44;;;31.80;26.01
54816;BME280;40715;55.752;37.884;2023-04-09T12:16:13;99995.72;;;31.78;26.10
54816;BME280;40715;55.752;37.884;2023-04-09T12:18:46;99993.00;;;31.78;26.50
54816;BME280;40715;55.752;37.884;2023-04-09T12:21:13;99994.72;;;31.79;26.53
54816;BME280;40715;55.752;37.884;2023-04-09T12:23:42;99998.44;;;31.78;26.11
54816;BME280;40715;55.752;37.884;2023-04-09T12:26:10;99992.31;;;31.76;26.13
54816;BME280;40715;55.752;37.884;2023-04-09T12:28:37;99987.72;;;31.76;26.15
54816;BME280;40715;55.752;37.884;2023-04-09T12:31:08;99984.31;;;31.74;26.37
54816;BME280;40715;55.752;37.884;2023-04-09T12:33:35;99995.88;;;31.76;26.36
54816;BME280;40715;55.752;37.884;2023-04-09T12:36:04;99999.50;;;31.77;26.33
54816;BME280;40715;55.752;37.884;2023-04-09T12:38:32;99995.88;;;31.76;26.44
54816;BME280;40715;55.752;37.884;2023-04-09T12:41:01;99990.44;;;31.76;26.15
54816;BME280;40715;55.752;37.884;2023-04-09T12:43:28;99988.72;;;31.75;26.24
54816;BME280;40715;55.752;37.884;2023-04-09T12:45:55;99983.59;;;31.72;26.57
54816;BME280;40715;55.752;37.884;2023-04-09T12:48:23;99994.34;;;31.74;26.48
54816;BME280;40715;55.752;37.884;2023-04-09T12:50:51;99989.75;;;31.74;26.54
54816;BME280;40715;55.752;37.884;2023-04-09T12:53:18;99988.88;;;31.74;26.42
54816;BME280;40715;55.752;37.884;2023-04-09T12:55:46;99989.94;;;31.73;26.15
54816;BME280;40715;55.752;37.884;2023-04-09T12:58:13;99984.47;;;31.73;26.24